SBTF

Details ICAO SBTF (TFF)
Name TEFE
Region Brazil
Timezone America/Manaus (UTC-4.0)
Plans Departing 21
Arriving 12
Stats Elevation 184 ft / 56 m (AMSL)
Location -3.382943° -64.724056°
Runways 1
Magnetic Variation 12.823° W
Sunrise 2017-12-11 10:04:18 UTC / 2017-12-11 06:04:18 Local
Sunset 2017-12-11 22:23:04 UTC / 2017-12-11 18:23:04 Local
Advertisement - Login to hide

Runways

ID Width Length Bearing (true) Bearing (mag) Surface Threshold Offset Overrun Length
15 148 ft / 45 m 7,232 ft / 2,204 m 137.81° 150.63° Asphalt 0 ft / 0 m 0 ft / 0 m
33 148 ft / 45 m 7,232 ft / 2,204 m 317.81° 330.63° Asphalt 0 ft / 0 m 0 ft / 0 m

Map

Weather


0- 5 10 15 20 25 30 35+ Temperature / ° C

Clouds and Precipitation
Forecast for 2017-12-11 18:00 UTC. Updated 14 minutes ago

Ground ~20,000 ft ~40,000 ft Winds

METAR

SBTF 111300Z 18004KT 9999 FEW010 BKN100 25/24 Q1011

TAF

Not found

Frequencies

Tower 125.90 MHz RDO
Warning: Do not use this data for real-world aviation or navigation. No guarantee of current accuracy is given.